Time;durP1;ratioP1;P1;durP2;ratioP2;P2;SDS_P1;SDS_P2;PMS_P1;PMS_P2;Temp;Humidity;BMP_temperature;BMP_pressure;BME280_temperature;BME280_humidity;BME280_pressure;Samples;Min_cycle;Max_cycle;Signal;HPM_P1;HPM_P2
2022/06/10 00:00:46;;;;;;;14.57;8.18;;;;;;;-148.88;99.06;75986.44;4998394;28;20488;-86
2022/06/10 00:03:13;;;;;;;10.35;7.93;;;;;;;-148.88;99.52;75998.63;4999601;28;20030;-87
2022/06/10 00:05:41;;;;;;;11.65;8.15;;;;;;;-148.88;99.19;75998.63;4999868;28;20504;-86
2022/06/10 00:08:09;;;;;;;12.23;8.68;;;;;;;-148.88;99.61;76000.66;4998920;28;20026;-86
2022/06/10 00:10:35;;;;;;;11.93;8.40;;;;;;;-148.88;99.63;76004.72;4999469;28;20092;-85
2022/06/10 00:13:01;;;;;;;11.57;7.93;;;;;;;-148.88;99.80;76004.72;4999357;28;20433;-87
2022/06/10 00:15:26;;;;;;;13.18;9.25;;;;;;;-148.88;99.86;76006.75;4999828;28;20496;-86
2022/06/10 00:17:52;;;;;;;12.02;8.90;;;;;;;-148.88;99.97;76014.88;5000295;28;20054;-86
2022/06/10 00:20:20;;;;;;;10.10;8.52;;;;;;;-148.88;100.00;76018.94;4999542;28;20082;-86
2022/06/10 00:22:46;;;;;;;14.07;9.35;;;;;;;-148.88;100.00;76029.09;4999327;28;20040;-86
2022/06/10 00:25:12;;;;;;;12.02;9.15;;;;;;;-148.88;100.00;76027.06;4997922;28;20120;-86
2022/06/10 00:27:37;;;;;;;14.15;9.25;;;;;;;-148.88;100.00;76029.09;4999525;28;20440;-86
2022/06/10 00:30:06;;;;;;;11.45;9.20;;;;;;;-148.88;100.00;76029.09;4999234;28;20026;-86
2022/06/10 00:32:31;;;;;;;11.75;8.82;;;;;;;-148.88;100.00;76035.19;4999043;28;20053;-85
2022/06/10 00:34:56;;;;;;;13.65;9.57;;;;;;;-148.88;100.00;76035.19;5014473;28;20064;-86
2022/06/10 00:37:22;;;;;;;14.65;9.45;;;;;;;-148.88;100.00;76037.22;4999167;28;20060;-85
2022/06/10 00:39:47;;;;;;;14.93;9.43;;;;;;;-148.88;100.00;76045.34;4999056;28;20014;-86
2022/06/10 00:42:12;;;;;;;12.50;9.02;;;;;;;-148.88;100.00;76049.41;4995972;28;20030;-86
2022/06/10 00:44:44;;;;;;;14.68;10.25;;;;;;;-148.88;100.00;76053.47;4996039;28;20026;-86
2022/06/10 00:47:22;;;;;;;13.23;9.40;;;;;;;-148.88;100.00;76047.38;4995985;28;20026;-86
2022/06/10 00:49:53;;;;;;;13.93;10.07;;;;;;;-148.88;100.00;76049.41;4996095;28;20058;-86
2022/06/10 00:52:27;;;;;;;12.20;9.63;;;;;;;-148.88;100.00;76051.44;4995120;28;20026;-86
2022/06/10 00:54:53;;;;;;;13.60;9.70;;;;;;;-148.88;100.00;76053.47;5011109;28;20147;-86
2022/06/10 00:57:26;;;;;;;14.95;10.10;;;;;;;-148.88;100.00;76057.53;5011230;28;20417;-86
2022/06/10 01:00:00;;;;;;;16.65;9.38;;;;;;;-148.88;100.00;76057.53;5011088;28;20025;-87
2022/06/10 01:02:30;;;;;;;12.82;10.25;;;;;;;-148.88;100.00;76061.59;4995212;28;20026;-86
2022/06/10 01:04:57;;;;;;;13.50;9.63;;;;;;;-148.88;100.00;76071.75;4996121;28;20421;-86
2022/06/10 01:07:27;;;;;;;13.35;9.50;;;;;;;-148.88;100.00;76077.84;4995701;28;20514;-86
2022/06/10 01:09:53;;;;;;;15.63;9.93;;;;;;;-148.88;100.00;76090.03;4994523;28;20057;-86
2022/06/10 01:12:19;;;;;;;13.32;10.10;;;;;;;-148.88;100.00;76098.16;4996261;28;20101;-86
2022/06/10 01:15:02;;;;;;;17.48;11.20;;;;;;;-148.88;100.00;76106.28;4994978;28;20117;-87
2022/06/10 01:18:08;;;;;;;16.92;10.52;;;;;;;-148.88;100.00;76114.41;4996144;28;20026;-85
2022/06/10 01:20:54;;;;;;;15.13;11.68;;;;;;;-148.88;100.00;76120.53;4973501;28;20100;-86
2022/06/10 01:24:07;;;;;;;16.55;10.63;;;;;;;-148.88;100.00;76122.56;4995377;28;20026;-87
2022/06/10 01:29:57;;;;;;;15.90;10.77;;;;;;;-148.88;100.00;76134.72;4995983;28;20061;-87
2022/06/10 01:32:37;;;;;;;14.52;10.07;;;;;;;-148.88;100.00;76144.91;4995401;28;20030;-86
2022/06/10 01:35:02;;;;;;;15.18;10.95;;;;;;;-148.88;100.00;76151.00;4995470;28;20030;-87
2022/06/10 01:37:43;;;;;;;13.10;10.23;;;;;;;-148.88;100.00;76155.06;4994490;28;20040;-86
2022/06/10 01:40:21;;;;;;;15.95;11.40;;;;;;;-148.88;100.00;76155.06;4995459;28;20252;-86
2022/06/10 01:43:07;;;;;;;21.08;12.15;;;;;;;-148.88;100.00;76167.25;5010261;28;20396;-86
2022/06/10 01:45:39;;;;;;;17.70;12.70;;;;;;;-148.88;100.00;76167.25;4995651;28;20026;-86
2022/06/10 01:48:09;;;;;;;19.23;12.73;;;;;;;-148.88;100.00;76167.25;5010082;28;20022;-86
2022/06/10 01:50:54;;;;;;;18.23;13.02;;;;;;;-148.88;100.00;76175.38;5010347;28;20026;-86
2022/06/10 01:53:26;;;;;;;18.40;13.35;;;;;;;-148.88;100.00;76175.38;4995250;28;20076;-86
2022/06/10 01:56:03;;;;;;;21.38;13.10;;;;;;;-148.88;100.00;76175.38;4994383;28;20082;-87
2022/06/10 01:58:45;;;;;;;15.52;13.05;;;;;;;-148.88;100.00;76183.50;4994950;28;20022;-85
2022/06/10 02:01:19;;;;;;;18.55;12.32;;;;;;;-148.88;100.00;76187.56;4995285;28;20496;-85
2022/06/10 02:03:59;;;;;;;17.13;12.32;;;;;;;-148.88;100.00;76183.50;4995224;28;20034;-85
2022/06/10 02:06:48;;;;;;;18.77;13.40;;;;;;;-148.88;100.00;76197.72;4995112;28;20042;-88
2022/06/10 02:09:22;;;;;;;20.67;14.93;;;;;;;-148.88;100.00;76195.69;4992899;28;20038;-86
2022/06/10 02:11:56;;;;;;;21.92;15.25;;;;;;;-148.88;100.00;76203.81;4994848;28;20033;-87
2022/06/10 02:14:27;;;;;;;22.67;15.90;;;;;;;-148.88;100.00;76203.81;4994822;28;20033;-87
2022/06/10 02:16:55;;;;;;;20.67;15.73;;;;;;;-148.88;100.00;76207.88;5009836;28;20026;-85
2022/06/10 02:19:30;;;;;;;21.70;14.90;;;;;;;-148.88;100.00;76216.00;5010012;28;20473;-87
2022/06/10 02:22:02;;;;;;;21.70;16.50;;;;;;;-148.88;100.00;76222.09;5009775;28;20034;-86
2022/06/10 02:24:37;;;;;;;24.75;16.50;;;;;;;-148.88;100.00;76224.13;4992945;28;20038;-85
2022/06/10 02:27:09;;;;;;;23.90;16.45;;;;;;;-148.88;100.00;76228.19;4994585;28;20018;-86
2022/06/10 02:29:39;;;;;;;25.13;17.15;;;;;;;-148.88;100.00;76236.31;4994405;28;20042;-86
2022/06/10 02:32:05;;;;;;;20.75;15.48;;;;;;;-148.88;100.00;76232.25;4994387;28;20034;-87
2022/06/10 02:34:30;;;;;;;20.77;15.13;;;;;;;-148.88;100.00;76234.28;4994166;28;20085;-84
2022/06/10 02:37:05;;;;;;;26.90;17.38;;;;;;;-148.88;100.00;76246.47;4994562;28;20034;-85
2022/06/10 02:39:56;;;;;;;21.80;16.08;;;;;;;-148.88;100.00;76248.50;4994065;28;20068;-85
2022/06/10 02:42:34;;;;;;;27.35;17.02;;;;;;;-148.88;100.00;76258.66;4994215;28;20045;-84
2022/06/10 02:45:30;;;;;;;25.63;17.65;;;;;;;-148.88;100.00;76264.75;4993994;28;20034;-84
2022/06/10 02:48:07;;;;;;;24.00;18.05;;;;;;;-148.88;100.00;76266.78;4994052;28;20354;-85
2022/06/10 02:50:33;;;;;;;25.13;18.67;;;;;;;-148.88;100.00;76268.81;4994522;28;20353;-84
2022/06/10 02:52:59;;;;;;;26.80;18.50;;;;;;;-148.88;100.00;76266.78;5008906;28;20562;-86
2022/06/10 02:55:26;;;;;;;27.85;20.23;;;;;;;-148.88;100.00;76266.78;5008924;28;20493;-86
2022/06/10 03:01:16;;;;;;;29.00;20.27;;;;;;;-148.88;100.00;76283.03;4994162;28;20549;-87
2022/06/10 03:03:57;;;;;;;24.92;20.45;;;;;;;-148.88;100.00;76285.06;4993722;28;20469;-87
2022/06/10 03:06:30;;;;;;;29.45;21.58;;;;;;;-148.88;100.00;76287.09;4992120;28;20034;-86
2022/06/10 03:09:07;;;;;;;29.47;21.73;;;;;;;-148.88;100.00;76285.06;4993839;28;20029;-86
2022/06/10 03:11:40;;;;;;;28.98;21.20;;;;;;;-148.88;100.00;76289.13;5009032;28;20026;-86
2022/06/10 03:14:20;;;;;;;;;;;;;;;-148.88;100.00;76297.25;4994243;28;20022;-88
2022/06/10 03:17:15;;;;;;;26.75;20.10;;;;;;;-148.88;100.00;76301.31;4994187;28;19972;-87
2022/06/10 03:19:52;;;;;;;34.40;21.27;;;;;;;-148.88;100.00;76301.31;4992452;28;20030;-86
2022/06/10 03:22:34;;;;;;;27.67;19.92;;;;;;;-148.88;100.00;76305.38;4994260;28;20373;-87
2022/06/10 03:25:28;;;;;;;32.15;22.17;;;;;;;-148.88;100.00;76301.31;5023020;23;20041;-77
2022/06/10 03:28:28;;;;;;;30.45;22.42;;;;;;;-148.88;100.00;76299.28;5014491;28;20570;-77
2022/06/10 03:30:59;;;;;;;32.20;22.92;;;;;;;-148.88;100.00;76299.28;5013427;28;20030;-77
2022/06/10 03:33:37;;;;;;;31.33;22.85;;;;;;;-148.88;100.00;76301.31;5013438;28;20491;-77
2022/06/10 03:36:07;;;;;;;29.83;21.98;;;;;;;-148.88;100.00;76303.34;5013360;28;20025;-77
2022/06/10 03:38:39;;;;;;;33.10;21.00;;;;;;;-148.88;100.00;76301.31;5013271;28;20025;-77
2022/06/10 03:41:05;;;;;;;30.38;22.63;;;;;;;-148.88;100.00;76311.47;5012925;28;20042;-77
2022/06/10 03:43:39;;;;;;;30.52;22.75;;;;;;;-148.88;100.00;76309.44;5013435;28;20094;-77
2022/06/10 03:46:06;;;;;;;;;;;;;;;-148.88;100.00;76303.34;5028900;28;20088;-77
2022/06/10 03:48:35;;;;;;;31.02;22.17;;;;;;;-148.88;100.00;76309.44;5013006;28;19920;-77
2022/06/10 03:51:01;;;;;;;32.25;23.55;;;;;;;-148.88;100.00;76305.38;5013446;28;20029;-77
2022/06/10 03:53:26;;;;;;;38.35;24.10;;;;;;;-148.88;100.00;76301.31;5013267;28;20033;-77
2022/06/10 03:55:52;;;;;;;34.97;24.38;;;;;;;-148.88;100.00;76305.38;5013480;28;20037;-78
2022/06/10 03:58:18;;;;;;;35.13;23.92;;;;;;;-148.88;100.00;76309.44;5013322;28;20419;-77
2022/06/10 04:00:44;;;;;;;35.70;23.85;;;;;;;-148.88;100.00;76309.44;5012103;28;20509;-77
2022/06/10 04:03:11;;;;;;;36.90;24.83;;;;;;;-148.88;100.00;76309.44;5013319;28;20057;-77
2022/06/10 04:05:37;;;;;;;35.60;24.40;;;;;;;-148.88;100.00;76303.34;5014398;28;20025;-77
2022/06/10 04:08:03;;;;;;;34.90;24.98;;;;;;;-148.88;100.00;76305.38;5013413;28;20033;-77
2022/06/10 04:10:29;;;;;;;31.58;24.33;;;;;;;-148.88;100.00;76309.44;5028964;28;20022;-77
2022/06/10 04:12:55;;;;;;;39.30;25.30;;;;;;;-148.88;100.00;76303.34;5013232;28;20029;-77
2022/06/10 04:15:24;;;;;;;40.92;24.35;;;;;;;-148.88;100.00;76297.25;5013147;28;20040;-77
2022/06/10 04:17:50;;;;;;;34.80;25.08;;;;;;;-148.88;100.00;76295.22;5014157;28;20018;-77
2022/06/10 04:20:21;;;;;;;34.10;23.90;;;;;;;-148.88;100.00;76297.25;5016773;28;20034;-77
2022/06/10 04:22:47;;;;;;;31.90;24.00;;;;;;;-148.88;100.00;76297.25;5016840;28;20061;-77
2022/06/10 04:25:12;;;;;;;35.03;25.10;;;;;;;-148.88;100.00;76297.25;5032081;28;20033;-77
2022/06/10 04:27:39;;;;;;;33.95;25.15;;;;;;;-148.88;100.00;76295.22;5032875;28;20018;-77
2022/06/10 04:30:06;;;;;;;34.60;24.02;;;;;;;-148.88;100.00;76289.13;5016604;28;20057;-77
2022/06/10 04:32:32;;;;;;;33.42;24.67;;;;;;;-148.88;100.00;76283.03;5016568;28;20108;-77
2022/06/10 04:34:57;;;;;;;39.22;24.92;;;;;;;-148.88;100.00;76281.00;5016493;28;20028;-77
2022/06/10 04:37:24;;;;;;;35.78;24.65;;;;;;;-148.88;100.00;76276.94;5031720;28;20026;-77
2022/06/10 04:39:49;;;;;;;38.53;25.50;;;;;;;-148.88;100.00;76264.75;5016828;28;20034;-77
2022/06/10 04:42:15;;;;;;;35.60;25.20;;;;;;;-148.88;100.00;76268.81;5016829;28;20102;-76
2022/06/10 04:44:40;;;;;;;40.03;24.60;;;;;;;-148.88;100.00;76260.69;5016557;28;20028;-76
2022/06/10 04:47:07;;;;;;;37.40;24.35;;;;;;;-148.88;100.00;76258.66;5016516;28;20029;-77
2022/06/10 04:49:32;;;;;;;39.30;25.60;;;;;;;-148.88;100.00;76256.63;5016265;28;20029;-76
2022/06/10 04:51:58;;;;;;;36.55;25.10;;;;;;;-148.88;100.00;76246.47;5016540;28;20026;-77
2022/06/10 04:54:24;;;;;;;36.22;25.75;;;;;;;-148.88;100.00;76248.50;5016401;28;20022;-76
2022/06/10 04:56:49;;;;;;;38.97;25.98;;;;;;;-148.88;100.00;76240.38;5031547;28;20104;-77
2022/06/10 04:59:14;;;;;;;39.58;25.27;;;;;;;-148.88;100.00;76234.28;5031399;28;20547;-77
2022/06/10 05:01:40;;;;;;;37.30;23.95;;;;;;;-148.88;100.00;76230.22;5031465;28;20025;-77
2022/06/10 05:04:05;;;;;;;37.45;24.38;;;;;;;-148.88;100.00;76228.19;5031286;28;20022;-76
2022/06/10 05:06:30;;;;;;;37.03;25.30;;;;;;;-148.88;100.00;76224.13;5015994;28;20033;-77
2022/06/10 05:08:56;;;;;;;32.38;24.00;;;;;;;-148.88;100.00;76211.94;5015937;28;20025;-77
2022/06/10 05:11:22;;;;;;;33.75;23.55;;;;;;;-148.88;100.00;76216.00;5031131;28;20022;-77
2022/06/10 05:13:48;;;;;;;36.33;24.45;;;;;;;-148.88;100.00;76209.91;5031421;28;20117;-77
2022/06/10 05:16:14;;;;;;;37.25;24.45;;;;;;;-148.88;100.00;76193.66;5015938;28;20387;-77
2022/06/10 05:18:39;;;;;;;36.50;22.98;;;;;;;-148.88;100.00;76185.53;5031321;28;20029;-77
2022/06/10 05:21:04;;;;;;;33.13;23.45;;;;;;;-148.88;100.00;76177.41;5016376;28;20483;-76
2022/06/10 05:23:30;;;;;;;34.13;22.40;;;;;;;-148.88;100.00;76167.25;5015764;28;20034;-77
2022/06/10 05:25:55;;;;;;;34.50;22.00;;;;;;;-148.88;100.00;76151.00;5015690;28;20022;-77
2022/06/10 05:28:21;;;;;;;34.85;22.50;;;;;;;-148.88;100.00;76153.03;5015195;28;20049;-77
2022/06/10 05:30:47;;;;;;;36.67;22.30;;;;;;;-148.88;100.00;76146.94;5014980;28;20497;-77
2022/06/10 05:33:13;;;;;;;31.45;20.90;;;;;;;-148.88;100.00;76134.72;5015570;28;20503;-76
2022/06/10 05:35:40;;;;;;;35.05;21.23;;;;;;;-148.88;100.00;76118.47;5015742;28;20045;-77
2022/06/10 05:38:06;;;;;;;33.22;21.42;;;;;;;-148.88;100.00;76104.25;5015255;28;20033;-77
2022/06/10 05:40:32;;;;;;;30.52;20.85;;;;;;;-148.88;100.00;76106.28;5030650;28;20030;-77
2022/06/10 05:42:58;;;;;;;27.45;19.10;;;;;;;-148.88;100.00;76090.03;5015340;28;20033;-77
2022/06/10 05:45:24;;;;;;;27.42;18.55;;;;;;;-148.88;100.00;76085.97;5015433;28;20480;-77
2022/06/10 05:47:55;;;;;;;27.08;18.65;;;;;;;-148.88;100.00;76065.66;5015086;28;20029;-77
2022/06/10 05:50:25;;;;;;;25.05;17.98;;;;;;;-148.88;100.00;76057.53;5030412;28;20018;-77
2022/06/10 05:52:50;;;;;;;23.77;17.63;;;;;;;-148.88;100.00;76049.41;5015216;28;20022;-77
2022/06/10 05:55:16;;;;;;;31.02;18.98;;;;;;;-148.88;100.00;76049.41;5015085;28;20029;-77
2022/06/10 05:57:42;;;;;;;30.27;17.13;;;;;;;-148.88;100.00;76029.09;5030882;28;20021;-77
2022/06/10 06:00:13;;;;;;;22.65;17.35;;;;;;;-148.88;100.00;76025.03;5015225;28;20053;-77
2022/06/10 06:02:41;;;;;;;23.00;16.00;;;;;;;-148.88;100.00;76016.91;5015396;28;20022;-77
2022/06/10 06:05:08;;;;;;;23.05;15.80;;;;;;;-148.88;100.00;75998.63;5014915;28;20052;-77
2022/06/10 06:07:33;;;;;;;23.58;15.43;;;;;;;-148.88;100.00;75984.41;5030146;28;20410;-76
2022/06/10 06:09:59;;;;;;;19.52;14.27;;;;;;;-148.88;100.00;75976.28;5014836;28;20149;-76
2022/06/10 06:12:24;;;;;;;23.13;13.82;;;;;;;-148.88;100.00;75972.22;5030007;28;20022;-76
2022/06/10 06:14:49;;;;;;;20.38;12.85;;;;;;;-148.88;99.64;75960.03;5014681;28;20018;-76
2022/06/10 06:17:19;;;;;;;21.23;13.70;;;;;;;-148.88;100.00;75943.78;5014538;28;20026;-76
2022/06/10 06:19:44;;;;;;;20.05;13.43;;;;;;;-148.88;99.36;75935.66;5014632;28;20021;-76
2022/06/10 06:22:10;;;;;;;17.85;12.35;;;;;;;-148.88;98.83;75925.50;5014872;28;20025;-76
2022/06/10 06:24:37;;;;;;;15.18;11.35;;;;;;;-148.88;96.95;75921.44;5014614;28;20042;-76
2022/06/10 06:27:02;;;;;;;14.20;9.30;;;;;;;-148.88;92.93;75905.19;5014450;28;20017;-76
2022/06/10 06:29:29;;;;;;;16.33;9.23;;;;;;;-148.88;93.42;75890.97;5014165;28;20453;-76
2022/06/10 06:31:54;;;;;;;13.27;8.52;;;;;;;-148.88;89.74;75874.72;5014319;28;20033;-76
2022/06/10 06:34:20;;;;;;;13.73;9.13;;;;;;;-148.88;88.68;75870.66;5015659;28;20399;-76
2022/06/10 06:36:48;;;;;;;15.38;8.35;;;;;;;-148.88;89.64;75870.66;5013375;28;20049;-76
2022/06/10 06:39:16;;;;;;;13.35;8.45;;;;;;;-148.88;89.88;75878.78;5013206;28;20024;-77
2022/06/10 06:41:42;;;;;;;13.85;8.85;;;;;;;-148.88;87.58;75899.09;5013764;28;20026;-77
2022/06/10 06:44:07;;;;;;;12.82;8.93;;;;;;;-148.88;89.25;75911.28;5014308;28;20076;-77
2022/06/10 06:46:35;;;;;;;17.90;9.32;;;;;;;-148.88;89.87;75903.16;5029436;28;20450;-77
2022/06/10 06:49:03;;;;;;;14.40;9.75;;;;;;;-148.88;90.14;75882.84;5013944;28;20438;-77
2022/06/10 06:51:28;;;;;;;17.33;9.60;;;;;;;-148.88;89.32;75874.72;5013989;28;20496;-77
2022/06/10 06:53:54;;;;;;;16.98;9.73;;;;;;;-148.88;87.94;75874.72;5012827;28;20022;-77
2022/06/10 06:56:19;;;;;;;16.48;9.13;;;;;;;-148.88;88.21;75856.44;5013610;28;20032;-77
2022/06/10 06:58:45;;;;;;;16.75;9.65;;;;;;;-148.88;89.22;75848.31;5013969;28;20052;-77
2022/06/10 07:01:10;;;;;;;16.45;9.38;;;;;;;-148.88;88.97;75836.13;5014045;28;20026;-77
2022/06/10 07:03:35;;;;;;;19.95;9.25;;;;;;;-148.88;87.67;75842.22;5013595;28;20028;-77
2022/06/10 07:06:01;;;;;;;13.90;9.40;;;;;;;-148.88;89.19;75821.91;5013932;28;20379;-77
2022/06/10 07:08:31;;;;;;;14.48;9.98;;;;;;;-148.88;89.29;75821.91;5013866;28;20545;-77
2022/06/10 07:10:58;;;;;;;14.15;9.15;;;;;;;-148.88;88.85;75815.81;5013871;28;20025;-77
2022/06/10 07:13:24;;;;;;;13.85;8.30;;;;;;;-148.88;88.07;75809.72;5014641;28;20025;-77
2022/06/10 07:15:50;;;;;;;15.70;8.50;;;;;;;-148.88;88.43;75781.28;5013956;28;20080;-77
2022/06/10 07:18:15;;;;;;;12.82;7.15;;;;;;;-148.88;86.67;75783.31;5029062;28;20025;-77
2022/06/10 07:20:41;;;;;;;13.18;8.02;;;;;;;-148.88;85.32;75777.22;5012791;28;20018;-77
2022/06/10 07:23:06;;;;;;;19.98;8.80;;;;;;;-148.88;85.15;75773.16;5013541;28;20029;-77
2022/06/10 07:25:32;;;;;;;12.15;7.75;;;;;;;-148.88;85.51;75754.88;5014180;28;20033;-77
2022/06/10 07:27:58;;;;;;;13.25;7.75;;;;;;;-148.88;84.73;75744.72;5013510;28;20032;-77
2022/06/10 07:30:27;;;;;;;13.15;7.32;;;;;;;-148.88;84.07;75740.66;5012253;28;20071;-77
2022/06/10 07:32:52;;;;;;;13.48;6.70;;;;;;;-148.88;81.35;75736.59;5013836;28;20080;-77
2022/06/10 07:35:18;;;;;;;9.68;5.88;;;;;;;-148.88;80.65;75718.31;5013612;28;20057;-77
2022/06/10 07:37:45;;;;;;;10.07;6.13;;;;;;;-148.88;81.08;75710.19;5028781;28;20376;-77
2022/06/10 07:41:56;;;;;;;14.88;7.22;;;;;;;-148.88;80.95;75704.09;5028566;28;20021;-77
2022/06/10 07:43:00;;;;;;;13.63;6.75;;;;;;;-148.88;82.97;75687.84;5013328;28;20030;-77
2022/06/10 07:45:26;;;;;;;11.48;6.20;;;;;;;-148.88;82.86;75669.56;5013599;28;20124;-77
2022/06/10 07:47:51;;;;;;;13.32;6.40;;;;;;;-148.88;82.48;75641.13;5013674;28;20034;-77
2022/06/10 07:50:17;;;;;;;17.23;6.20;;;;;;;-148.88;77.86;75639.09;5014567;28;20068;-77
2022/06/10 07:52:42;;;;;;;8.90;5.18;;;;;;;-148.88;79.61;75606.59;5016183;28;20483;-77
2022/06/10 07:55:08;;;;;;;10.55;5.57;;;;;;;-148.88;76.17;75590.34;5017611;28;20021;-78
2022/06/10 07:57:33;;;;;;;11.82;5.53;;;;;;;-148.88;75.75;75578.19;5017378;28;20029;-77
2022/06/10 07:59:58;;;;;;;12.85;5.28;;;;;;;-148.88;75.60;75586.31;5017336;28;20017;-77
2022/06/10 08:02:24;;;;;;;10.43;5.53;;;;;;;-148.88;76.90;75570.03;5016025;28;20041;-77
2022/06/10 08:04:49;;;;;;;10.77;3.95;;;;;;;-148.88;75.03;75570.03;5015917;28;20022;-77
2022/06/10 08:07:14;;;;;;;11.77;3.83;;;;;;;-148.88;73.67;75553.81;5017072;28;20030;-77
2022/06/10 08:09:40;;;;;;;9.00;3.75;;;;;;;-148.88;72.43;75555.84;5017050;28;20116;-77
2022/06/10 08:12:05;;;;;;;15.95;3.80;;;;;;;-148.88;74.40;75533.50;5017243;28;20064;-77
2022/06/10 08:14:31;;;;;;;13.48;4.53;;;;;;;-148.88;73.44;75517.25;5015957;28;20403;-77
2022/06/10 08:16:56;;;;;;;10.57;3.60;;;;;;;-148.88;69.99;75517.25;5017172;28;20475;-77
2022/06/10 08:19:22;;;;;;;9.45;3.25;;;;;;;-148.88;67.79;75521.31;5016825;28;20029;-77
2022/06/10 08:24:31;;;;;;;9.60;3.00;;;;;;;-148.88;67.28;75519.28;5016942;28;20036;-77
2022/06/10 08:26:56;;;;;;;6.65;2.75;;;;;;;-148.88;67.63;75525.38;5016859;28;20026;-77
2022/06/10 08:29:22;;;;;;;6.68;2.78;;;;;;;-148.88;68.90;75521.31;5016957;28;20034;-77
2022/06/10 08:31:47;;;;;;;10.43;2.90;;;;;;;-148.88;69.64;75525.38;5016816;28;20033;-77
2022/06/10 08:34:13;;;;;;;8.55;2.78;;;;;;;-148.88;68.52;75525.38;5016717;28;20105;-77
2022/06/10 08:36:39;;;;;;;8.00;3.40;;;;;;;-148.88;66.80;75531.47;5016873;28;20394;-77
2022/06/10 08:39:04;;;;;;;7.85;2.95;;;;;;;-148.88;67.66;75525.38;5016328;28;20018;-77
2022/06/10 08:42:00;;;;;;;9.90;3.08;;;;;;;-148.88;66.71;75501.00;5015087;28;20018;-77
2022/06/10 08:44:37;;;;;;;8.55;2.60;;;;;;;-148.88;66.61;75484.75;5016442;28;20040;-77
2022/06/10 08:47:12;;;;;;;7.13;2.15;;;;;;;-148.88;64.54;75474.59;5031669;28;20026;-77
2022/06/10 08:49:55;;;;;;;8.10;2.28;;;;;;;-148.88;65.23;75466.47;5016083;28;20395;-77
2022/06/10 08:52:52;;;;;;;9.65;2.13;;;;;;;-148.88;64.76;75442.09;5016303;28;20108;-77
2022/06/10 08:55:26;;;;;;;7.57;2.15;;;;;;;-148.88;63.15;75415.69;5017855;28;20538;-78
2022/06/10 08:57:54;;;;;;;10.05;2.75;;;;;;;-148.88;63.38;75433.97;5018791;28;20498;-76
2022/06/10 09:00:23;;;;;;;9.88;2.50;;;;;;;-148.88;64.20;75452.25;5016579;28;20022;-77
2022/06/10 09:03:08;;;;;;;8.18;2.50;;;;;;;-148.88;62.95;75456.31;5016048;28;20029;-76
2022/06/10 09:05:37;;;;;;;6.50;2.22;;;;;;;-148.88;64.78;75452.25;5016709;28;20026;-75
2022/06/10 09:08:07;;;;;;;7.82;2.25;;;;;;;-148.88;63.26;75464.44;5016700;28;20030;-75
2022/06/10 09:10:48;;;;;;;9.43;2.58;;;;;;;-148.88;63.13;75482.72;5016532;28;20033;-77
2022/06/10 09:13:22;;;;;;;11.82;3.00;;;;;;;-148.88;63.69;75490.84;5015970;28;20104;-75
2022/06/10 09:15:54;;;;;;;10.02;2.88;;;;;;;-148.88;65.89;75452.25;5015869;28;20033;-75
2022/06/10 09:18:32;;;;;;;13.05;2.65;;;;;;;-148.88;65.21;75450.22;5030963;28;20033;-75
2022/06/10 09:21:05;;;;;;;10.10;3.10;;;;;;;-148.88;65.03;75456.31;5016210;28;20109;-75
2022/06/10 09:23:43;;;;;;;;;;;;;;;-148.88;64.30;75460.38;5037255;23;20012;-86
2022/06/10 09:26:15;;;;;;;6.65;2.60;;;;;;;-148.88;63.35;75458.34;5015120;28;19964;-85
2022/06/10 09:28:42;;;;;;;6.80;2.30;;;;;;;-148.88;63.70;75436.00;5014958;28;20495;-85
2022/06/10 09:31:36;;;;;;;9.27;2.90;;;;;;;-148.88;64.14;75440.06;5015159;28;20108;-85
2022/06/10 09:34:33;;;;;;;9.00;2.78;;;;;;;-148.88;66.74;75423.81;5013469;28;20460;-85
2022/06/10 09:37:15;;;;;;;6.68;2.47;;;;;;;-148.88;65.99;75427.88;5014821;28;20105;-85
2022/06/10 09:40:36;;;;;;;10.75;2.63;;;;;;;-148.88;65.38;75440.06;5014810;28;20033;-85
2022/06/10 09:43:21;;;;;;;6.30;2.40;;;;;;;-148.88;65.91;75417.72;5029943;28;20021;-85
2022/06/10 09:46:24;;;;;;;8.73;2.53;;;;;;;-148.88;66.44;75399.44;5015652;28;20415;-86
2022/06/10 09:49:11;;;;;;;5.45;2.28;;;;;;;-148.88;64.42;75377.09;4991662;28;20041;-86
2022/06/10 09:51:55;;;;;;;7.40;2.35;;;;;;;-148.88;62.83;75350.69;5014698;28;20025;-86
2022/06/10 09:54:20;;;;;;;;;;;;;;;-148.88;64.43;75338.50;5013599;28;20117;-85
2022/06/10 09:57:00;;;;;;;7.00;2.25;;;;;;;-148.88;62.81;75320.22;5013250;28;19952;-86
2022/06/10 10:00:03;;;;;;;7.63;2.40;;;;;;;-148.88;59.80;75306.00;5014420;28;20068;-86
2022/06/10 10:02:44;;;;;;;;;;;;;;;-148.88;60.04;75362.88;5015338;28;20028;-86
2022/06/10 10:05:12;;;;;;;7.88;2.80;;;;;;;-148.88;60.61;75387.25;5013206;28;19917;-86
2022/06/10 10:07:53;;;;;;;6.95;2.47;;;;;;;-148.88;62.04;75397.41;5014463;28;20531;-86
2022/06/10 10:10:29;;;;;;;7.68;3.10;;;;;;;-148.88;62.78;75395.38;5014377;28;20030;-87
2022/06/10 10:13:00;;;;;;;7.70;2.63;;;;;;;-148.88;64.27;75395.38;5014717;28;20029;-87
2022/06/10 10:15:35;;;;;;;7.95;2.33;;;;;;;-148.88;62.85;75381.16;5013235;28;20476;-85
2022/06/10 10:18:29;;;;;;;7.95;2.88;;;;;;;-148.88;63.02;75391.31;5014297;28;20393;-88
2022/06/10 10:21:11;;;;;;;10.57;2.80;;;;;;;-148.88;64.41;75415.69;5016321;28;20028;-87
2022/06/10 10:23:49;;;;;;;9.35;2.97;;;;;;;-148.88;64.86;75438.03;5029901;28;20108;-89
2022/06/10 10:26:40;;;;;;;7.97;2.42;;;;;;;-148.88;65.36;75448.19;5028924;28;20022;-88
2022/06/10 10:29:25;;;;;;;5.68;2.22;;;;;;;-148.88;65.13;75444.13;5013811;28;20042;-89
2022/06/10 10:32:19;;;;;;;9.88;2.30;;;;;;;-148.88;64.80;75456.31;5029584;28;20029;-88
2022/06/10 10:34:58;;;;;;;9.05;2.25;;;;;;;-148.88;64.13;75454.28;5011526;28;20068;-87
2022/06/10 10:37:29;;;;;;;6.38;2.40;;;;;;;-148.88;64.93;75438.03;5013738;28;20041;-86
2022/06/10 10:39:59;;;;;;;7.32;2.20;;;;;;;-148.88;65.53;75403.50;5013664;28;20014;-85
2022/06/10 10:42:36;;;;;;;7.22;1.77;;;;;;;-148.88;64.48;75411.63;5012819;28;20099;-87
2022/06/10 10:45:07;;;;;;;7.95;1.77;;;;;;;-148.88;62.99;75413.66;5013487;28;20041;-85
2022/06/10 10:47:36;;;;;;;6.15;1.90;;;;;;;-148.88;63.71;75431.94;5013582;28;20510;-86
2022/06/10 10:50:01;;;;;;;6.45;2.17;;;;;;;-148.88;63.54;75427.88;5013501;28;20037;-86
2022/06/10 10:52:37;;;;;;;8.30;2.23;;;;;;;-148.88;63.33;75423.81;5013611;28;20596;-85
2022/06/10 10:55:21;;;;;;;5.43;2.03;;;;;;;-148.88;63.27;75427.88;5012848;28;20064;-87
2022/06/10 10:58:17;;;;;;;6.03;2.15;;;;;;;-148.88;64.30;75373.03;5029257;28;20024;-85
2022/06/10 11:00:45;;;;;;;7.68;2.00;;;;;;;-148.88;64.57;75383.19;5014085;28;20101;-88
2022/06/10 11:03:24;;;;;;;6.65;2.05;;;;;;;-148.88;64.49;75395.38;5013425;28;20030;-85
2022/06/10 11:05:52;;;;;;;5.47;2.15;;;;;;;-148.88;66.12;75371.00;5012552;28;20076;-87
2022/06/10 11:08:20;;;;;;;6.93;2.40;;;;;;;-148.88;65.12;75379.13;5013796;28;20045;-86
2022/06/10 11:11:13;;;;;;;7.07;1.85;;;;;;;-148.88;63.75;75362.88;5012190;28;20025;-86
2022/06/10 11:14:00;;;;;;;9.20;2.72;;;;;;;-148.88;63.11;75387.25;5013377;28;20072;-85
2022/06/10 11:16:31;;;;;;;7.13;2.47;;;;;;;-148.88;65.06;75399.44;5028607;28;20455;-86
2022/06/10 11:19:17;;;;;;;5.88;2.70;;;;;;;-148.88;66.56;75366.94;5013632;28;20092;-88
2022/06/10 11:22:12;;;;;;;6.72;2.60;;;;;;;-148.88;66.24;75366.94;5013695;28;20030;-87
2022/06/10 11:24:44;;;;;;;6.80;2.50;;;;;;;-148.88;66.00;75336.47;5013499;28;20045;-85
2022/06/10 11:27:37;;;;;;;6.10;2.05;;;;;;;-148.88;65.49;75316.16;5012851;28;20028;-88
2022/06/10 11:30:12;;;;;;;5.70;1.95;;;;;;;-148.88;65.54;75308.03;5024937;28;20474;-87
2022/06/10 11:32:44;;;;;;;5.15;1.88;;;;;;;-148.88;65.88;75303.97;5012310;28;20032;-89
2022/06/10 11:36:02;;;;;;;4.90;1.80;;;;;;;-148.88;66.04;75293.81;5011629;28;20076;-88